• Join FlightAware (Why Join?)
  • Login
  • US Flag 
01:04PM EDT


 

Airport Tracker/Info


-or-


 

Live Flight TrackerFlight Track Log ✈ DAL1283 ✈ 21-Jun-2013 ✈ KMSP - KDFW

Flight Track Log - Related Links

Times and Time Zones

All times are in EDT time to prevent confusion due to time zone crossing. See the DAL1283 flight status page for this flight to view local times or setup timezone preferences in your user account.

Time Position Orientation Groundspeed Altitude Reporting Facility
EDT Latitude Longitude Course Direction KTS MPH feet Rate Location/Type
08:49PM 44.8333 -93.2333 154° Southeast 164 189 2,600  Level Minneapolis TRACON
08:49PM 44.8044 -93.2378 186° South 184 212 3,400 2,220 Climbing Minneapolis Center
08:50PM 44.7319 -93.2317 177° South 251 289 6,300 1,740 Climbing Minneapolis Center
08:51PM 44.6692 -93.1889 154° Southeast 280 322 7,000 240 Climbing Minneapolis Center
08:52PM 44.4194 -93.0350 157° South  Level FlightAware Approximate
08:52PM 44.5833 -93.1317 155° Southeast 286 329 6,900  Level Minneapolis Center
08:53PM 44.3154 -92.9556 150° Southeast  Level FlightAware Approximate
08:54PM 44.2087 -92.8891 154° Southeast  Level FlightAware Approximate
08:54PM 44.5111 -93.0842 155° Southeast 286 329 7,300  Level Minneapolis Center
08:55PM 44.4328 -93.0133 147° Southeast 284 327 11,700 3,120 Climbing Minneapolis Center
08:56PM 44.3928 -92.9108 119° Southeast 305 351 13,800 1,740 Climbing Minneapolis Center
08:57PM 44.3036 -92.8528 155° Southeast 356 410 15,300 2,280 Climbing Minneapolis Center
08:58PM 44.1844 -92.7928 160° South 377 434 18,500 2,460 Climbing Minneapolis Center
08:59PM 44.0808 -92.7436 161° South 390 449 20,500 2,040 Climbing Minneapolis Center
09:00PM 43.9725 -92.6897 160° South 408 470 22,800 2,100 Climbing Minneapolis Center
09:01PM 43.8658 -92.6375 161° South 409 471 24,900 1,260 Climbing Minneapolis Center
09:02PM 43.7578 -92.5906 163° South 407 468 25,400 1,020 Climbing Minneapolis Center
09:03PM 43.6444 -92.5753 174° South 410 472 27,000 720 Climbing Minneapolis Center
09:04PM 43.5256 -92.5567 174° South 423 487 27,000  Level Minneapolis Center
09:05PM 43.3817 -92.5311 173° South 439 505 27,000  Level Minneapolis Center
09:06PM 43.2553 -92.5119 174° South 457 526 27,000  Level Minneapolis Center
09:07PM 43.1072 -92.4872 173° South 453 521 27,000  Level Minneapolis Center
09:08PM 42.9808 -92.4669 173° South 461 531 27,000  Level Minneapolis Center
09:09PM 42.8781 -92.4500 173° South 469 540 27,000  Level Minneapolis Center
09:10PM 42.7242 -92.4497 180° South 470 541 27,000 300 Level Chicago Center
09:11PM 42.6053 -92.5147 202° Southwest 467 537 27,700 480 Climbing Chicago Center
09:12PM 42.4875 -92.5811 203° Southwest 464 534 28,000 120 Climbing Chicago Center
09:13PM 42.3711 -92.6478 203° Southwest 463 533 28,000  Level Minneapolis Center
09:14PM 42.2533 -92.7139 203° Southwest 463 533 28,000  Level Minneapolis Center
09:15PM 42.1119 -92.7925 202° Southwest 463 533 28,000  Level Minneapolis Center
09:16PM 41.9939 -92.8597 203° Southwest 465 535 28,000  Level Minneapolis Center
09:17PM 41.8794 -92.9219 202° Southwest 467 537 28,000  Level Minneapolis Center
09:18PM 41.7611 -92.9872 202° Southwest 466 536 28,000  Level Minneapolis Center
09:19PM 41.6194 -93.0661 203° Southwest 464 534 28,000 540 Level Minneapolis Center
09:20PM 41.5042 -93.1286 202° Southwest 457 526 29,200 960 Climbing Minneapolis Center
09:22PM 41.3911 -93.1903 202° Southwest 448 516 30,000 240 Climbing Minneapolis Center
09:24PM 41.1458 -93.3189 202° Southwest 438 504 30,000  Level Kansas City Center
09:25PM 41.0100 -93.3936 203° Southwest 444 511 30,000  Level Kansas City Center
09:26PM 40.9203 -93.4417 202° Southwest 441 507 30,000  Level Chicago Center
09:27PM 40.8061 -93.5011 202° Southwest 444 511 30,000  Level Chicago Center
09:28PM 40.6722 -93.5739 202° Southwest 441 507 30,000  Level Chicago Center
09:29PM 40.5583 -93.6322 201° Southwest 444 511 30,000  Level Chicago Center
09:29PM 40.4900 -93.6694 203° Southwest 444 511 30,000  Level Minneapolis Center
09:30PM 40.3769 -93.7278 201° Southwest 443 510 30,000  Level Minneapolis Center
09:31PM 40.3119 -93.7631 202° Southwest 439 505 30,000  Level Kansas City Center
09:32PM 40.1972 -93.8231 202° Southwest 445 512 30,000  Level Kansas City Center
09:33PM 40.0800 -93.8833 201° Southwest 454 522 30,000  Level Kansas City Center
09:34PM 39.9636 -93.9428 201° Southwest 454 522 30,000 -60 Level Kansas City Center
09:35PM 39.8281 -94.0142 202° Southwest 445 512 29,900  Descending Kansas City Center
09:36PM 39.7061 -94.0772 202° Southwest 447 514 30,000  Climbing Kansas City Center
09:37PM 39.5944 -94.1347 202° Southwest 450 518 30,000  Level Kansas City Center
09:38PM 39.4819 -94.1919 201° Southwest 451 519 30,000  Level Kansas City Center
09:39PM 39.3511 -94.2586 202° Southwest 450 518 30,000  Level Kansas City Center
09:40PM 39.2392 -94.3153 201° Southwest 449 517 30,000  Level Kansas City Center
09:41PM 39.1075 -94.3806 201° Southwest 452 520 30,000  Level Kansas City Center
09:42PM 38.9947 -94.4383 202° Southwest 453 521 30,000  Level Kansas City Center
09:43PM 38.8814 -94.4942 201° Southwest 452 520 30,000  Level Kansas City Center
09:44PM 38.7503 -94.5606 202° Southwest 451 519 30,000  Level Kansas City Center
09:45PM 38.6367 -94.6175 201° Southwest 456 525 30,000  Level Kansas City Center
09:46PM 38.5053 -94.6833 201° Southwest 452 520 30,000  Level Kansas City Center
09:47PM 38.3919 -94.7383 201° Southwest 454 522 30,000  Level Kansas City Center
09:48PM 38.2611 -94.8025 201° Southwest 450 518 30,000  Level Kansas City Center
09:49PM 38.1478 -94.8583 201° Southwest 452 520 30,000  Level Kansas City Center
09:51PM 38.0353 -94.9139 201° Southwest 453 521 30,100 840 Climbing Kansas City Center
09:52PM 37.9033 -94.9786 201° Southwest 454 522 31,800 900 Climbing Kansas City Center
09:53PM 37.7925 -95.0297 200° South 446 513 32,000 60 Climbing Kansas City Center
09:54PM 37.6672 -95.0908 201° Southwest 445 512 32,000  Level Kansas City Center
09:55PM 37.5503 -95.1494 202° Southwest 449 517 32,000  Level Kansas City Center
09:56PM 37.4342 -95.2042 201° Southwest 447 514 32,000  Level Kansas City Center
09:57PM 37.3172 -95.2622 202° Southwest 449 517 32,000 240 Level Kansas City Center
09:58PM 37.2011 -95.3164 200° South 446 513 32,500 1,200 Climbing Kansas City Center
09:59PM 37.0853 -95.3706 200° South 444 511 34,600 1,560 Climbing Kansas City Center
10:00PM 36.9522 -95.4331 201° Southwest 429 494 35,800 1,140 Climbing Kansas City Center
10:01PM 36.8325 -95.4439 184° South 434 499 37,000 1,020 Climbing Kansas City Center
10:02PM 36.7144 -95.4336 176° South 428 493 38,000 480 Climbing Kansas City Center
10:03PM 36.5967 -95.4236 176° South 428 493 38,000  Level Kansas City Center
10:04PM 36.4775 -95.4131 176° South 428 493 38,000  Level Kansas City Center
10:05PM 36.3564 -95.4022 176° South 432 497 38,000  Level Kansas City Center
10:06PM 36.2350 -95.3925 176° South 435 501 38,000  Level Kansas City Center
10:07PM 36.0914 -95.3797 176° South 432 497 38,000  Level Kansas City Center
10:08PM 35.9803 -95.3706 176° South 431 496 38,000  Level Kansas City Center
10:09PM 35.8597 -95.3606 176° South 433 498 38,000  Level Kansas City Center
10:10PM 35.7386 -95.3497 176° South 434 499 38,000  Level Kansas City Center
10:11PM 35.6178 -95.3394 176° South 434 499 38,000  Level Kansas City Center
10:12PM 35.4742 -95.3269 176° South 431 496 38,000  Level Kansas City Center
10:13PM 35.3539 -95.3186 177° South 432 497 38,000 -360 Level Kansas City Center
10:14PM 35.2336 -95.3075 176° South 432 497 37,300 -960 Descending Kansas City Center
10:15PM 35.1122 -95.2986 177° South 433 498 36,100 -1,080 Descending Kansas City Center
10:16PM 34.9889 -95.2878 176° South 440 506 35,100 -540 Descending Kansas City Center
10:17PM 34.8633 -95.2778 176° South 448 516 35,000 -60 Descending Kansas City Center
10:19PM 34.6911 -95.2644 176° South 447 514 35,000 -240 Level Fort Worth Center
10:20PM 34.5556 -95.2578 178° South 441 507 34,500 -780 Descending Fort Worth Center
10:21PM 34.4372 -95.3033 198° South 441 507 33,500 -960 Descending Fort Worth Center
10:22PM 34.3450 -95.3964 220° Southwest 423 487 32,600 -960 Descending Fort Worth Center
10:23PM 34.2547 -95.4914 221° Southwest 428 493 31,600 -1,020 Descending Fort Worth Center
10:24PM 34.1622 -95.5836 220° Southwest 428 493 30,600 -960 Descending Fort Worth Center
10:25PM 34.0778 -95.6758 222° Southwest 428 493 29,700 -960 Descending Fort Worth Center
10:26PM 33.9914 -95.7653 221° Southwest 423 487 28,700 -1,440 Descending Fort Worth Center
10:27PM 33.9450 -95.8886 246° West 401 461 26,900 -2,340 Descending Fort Worth Center
10:28PM 33.9422 -96.0139 269° West 395 455 24,100 -2,160 Descending Fort Worth Center
10:29PM 33.8722 -96.1078 228° Southwest 377 434 22,600 -2,040 Descending Fort Worth Center
10:30PM 33.7622 -96.1492 197° South 361 415 20,100 -2,400 Descending Fort Worth Center
10:31PM 33.6625 -96.1881 198° South 374 430 17,900 -2,280 Descending Fort Worth Center
10:32PM 33.5667 -96.2244 198° South 374 430 15,600 -2,040 Descending Fort Worth Center
10:33PM 33.4900 -96.2903 216° Southwest 355 409 13,900 -2,160 Descending Fort Worth Center
10:34PM 33.4322 -96.3606 225° Southwest 317 365 11,300 -1,680 Descending Fort Worth Center
10:35PM 33.3806 -96.4358 231° Southwest 302 348 10,600 -1,140 Descending Fort Worth Center
10:35PM 33.3667 -96.4833 251° West 290 334 9,600 -1,200 Descending Dallas / Fort Worth TRACON
10:36PM 33.3167 -96.5833 239° Southwest 285 328 8,500 -1,080 Descending Dallas / Fort Worth TRACON
10:37PM 33.2833 -96.6667 244° Southwest 267 307 7,300 -1,140 Descending Dallas / Fort Worth TRACON
10:38PM 33.2500 -96.7333 239° Southwest 268 308 6,400 -1,020 Descending Dallas / Fort Worth TRACON
10:39PM 33.2167 -96.8333 248° West 269 310 5,200 -780 Descending Dallas / Fort Worth TRACON
10:40PM 33.2000 -96.8833 248° West 216 249 4,900 -600 Descending Dallas / Fort Worth TRACON
10:41PM 33.1667 -96.9667 244° Southwest 197 227 4,000 -480 Descending Dallas / Fort Worth TRACON
10:42PM 33.1500 -97.0167 248° West 177 204 4,000  Level Dallas / Fort Worth TRACON
10:43PM 33.1167 -97.0167 180° South 151 174 4,000 -300 Level Dallas / Fort Worth TRACON
10:44PM 33.0667 -97.0167 180° South 154 177 3,400 -600 Descending Dallas / Fort Worth TRACON